Time;durP1;ratioP1;P1;durP2;ratioP2;P2;SDS_P1;SDS_P2;PMS_P1;PMS_P2;Temp;Humidity;BMP_temperature;BMP_pressure;BME280_temperature;BME280_humidity;BME280_pressure;Samples;Min_cycle;Max_cycle;Signal;HPM_P1;HPM_P2
2023/01/21 00:00:16;;;;;;;4.47;2.40;;;;;;;3.86;72.24;97519.19;5119239;27;20404;-91
2023/01/21 00:02:42;;;;;;;7.10;2.85;;;;;;;3.89;72.38;97552.44;5118492;27;20488;-93
2023/01/21 00:05:08;;;;;;;4.68;2.50;;;;;;;3.69;71.69;97516.03;5118657;27;20045;-94
2023/01/21 00:07:34;;;;;;;6.75;2.80;;;;;;;3.81;72.33;97514.91;5116567;27;20039;-94
2023/01/21 00:10:00;;;;;;;4.53;2.35;;;;;;;3.74;71.10;97516.81;5119569;27;20396;-90
2023/01/21 00:12:27;;;;;;;4.00;1.90;;;;;;;3.72;71.15;97501.97;5118261;27;20487;-93
2023/01/21 00:14:53;;;;;;;11.40;2.63;;;;;;;3.66;71.21;97493.28;5118306;27;20031;-92
2023/01/21 00:17:19;;;;;;;7.32;2.70;;;;;;;3.69;70.42;97497.63;5117997;27;20050;-92
2023/01/21 00:19:44;;;;;;;5.22;2.55;;;;;;;3.86;70.97;97531.44;5118067;27;20062;-91
2023/01/21 00:22:11;;;;;;;3.92;2.40;;;;;;;3.77;70.62;97510.59;5117991;27;20138;-92
2023/01/21 00:24:36;;;;;;;6.55;2.85;;;;;;;3.83;70.16;97523.63;5119087;27;20039;-91
2023/01/21 00:27:02;;;;;;;7.30;3.03;;;;;;;3.86;70.90;97523.56;5119146;27;20038;-91
2023/01/21 00:29:30;;;;;;;3.72;2.30;;;;;;;3.73;69.29;97508.94;5119001;27;20043;-92
2023/01/21 00:31:55;;;;;;;5.75;2.65;;;;;;;3.74;69.94;97506.28;5116307;27;20063;-92
2023/01/21 00:34:21;;;;;;;4.10;2.30;;;;;;;3.75;69.57;97501.88;5118388;27;20059;-90
2023/01/21 00:36:47;;;;;;;8.07;2.40;;;;;;;3.68;69.38;97477.47;5121045;27;20464;-92
2023/01/21 00:39:13;;;;;;;4.03;2.55;;;;;;;3.84;69.64;97506.97;5117275;27;20573;-93
2023/01/21 00:41:39;;;;;;;4.68;2.58;;;;;;;3.64;68.97;97484.59;5117699;27;20108;-93
2023/01/21 00:44:05;;;;;;;8.00;2.70;;;;;;;3.63;69.30;97469.69;5117985;27;20067;-92
2023/01/21 00:46:32;;;;;;;6.60;3.05;;;;;;;3.75;68.90;97508.00;5117414;27;20039;-93
2023/01/21 00:48:59;;;;;;;9.80;3.25;;;;;;;3.76;68.61;97503.63;5118073;27;20057;-93
2023/01/21 00:51:25;;;;;;;6.40;2.70;;;;;;;3.71;69.98;97493.22;5117546;27;20381;-92
2023/01/21 00:53:51;;;;;;;5.53;2.45;;;;;;;3.79;68.43;97509.66;5117190;27;20041;-93
2023/01/21 00:56:17;;;;;;;4.00;2.28;;;;;;;3.76;68.33;97515.00;5117357;27;20035;-91
2023/01/21 00:58:42;;;;;;;3.83;2.13;;;;;;;3.78;68.36;97502.69;5117333;27;20035;-91
2023/01/21 01:01:11;;;;;;;5.53;2.65;;;;;;;3.73;67.98;97517.72;5117102;27;21203;-91
2023/01/21 01:03:39;;;;;;;4.03;2.37;;;;;;;3.68;68.53;97530.91;5117061;27;20051;-91
2023/01/21 01:06:08;;;;;;;5.27;2.47;;;;;;;3.70;68.63;97539.66;5118379;27;20093;-90
2023/01/21 01:08:34;;;;;;;4.57;2.35;;;;;;;3.65;68.73;97520.47;5116679;27;20134;-92
2023/01/21 01:11:01;;;;;;;3.72;2.22;;;;;;;3.70;69.18;97520.38;5116826;27;20062;-92
2023/01/21 01:13:27;;;;;;;3.70;2.20;;;;;;;3.65;68.12;97527.50;5116476;27;20506;-91
2023/01/21 01:15:56;;;;;;;7.63;2.72;;;;;;;3.60;67.81;97513.56;5116571;27;20131;-92
2023/01/21 01:18:22;;;;;;;6.57;2.75;;;;;;;3.66;68.27;97521.34;5115971;27;20063;-94
2023/01/21 01:20:49;;;;;;;4.60;2.35;;;;;;;3.58;68.73;97525.88;5116748;27;20100;-93
2023/01/21 01:23:15;;;;;;;4.90;2.33;;;;;;;3.56;68.26;97515.41;5117221;27;20571;-93
2023/01/21 01:25:41;;;;;;;3.28;2.20;;;;;;;3.50;67.88;97512.88;5115157;27;20031;-93
2023/01/21 01:28:07;;;;;;;5.13;2.30;;;;;;;3.68;68.39;97548.47;5116961;27;20715;-93
2023/01/21 01:30:33;;;;;;;3.80;2.22;;;;;;;3.73;67.49;97549.25;5117480;27;20039;-91
2023/01/21 01:33:00;;;;;;;4.18;2.38;;;;;;;3.65;67.75;97541.50;5116832;27;20031;-93
2023/01/21 01:35:26;;;;;;;5.57;2.55;;;;;;;3.55;67.31;97520.69;5115961;27;20161;-92
2023/01/21 01:37:53;;;;;;;6.68;2.60;;;;;;;3.54;67.30;97503.19;5116816;28;20047;-92
2023/01/21 01:40:19;;;;;;;4.40;2.30;;;;;;;3.62;67.07;97538.94;5117957;27;20045;-93
2023/01/21 01:42:46;;;;;;;6.35;2.20;;;;;;;3.61;66.54;97537.19;5117234;27;20073;-92
2023/01/21 01:45:17;;;;;;;4.07;2.28;;;;;;;3.58;66.53;97496.94;5147935;27;20043;-93
2023/01/21 01:47:47;;;;;;;3.90;2.30;;;;;;;3.60;65.63;97534.59;5116112;27;20490;-93
2023/01/21 01:50:14;;;;;;;;;;;;;;;3.73;65.22;97558.88;5112788;28;20035;-93
2023/01/21 01:52:42;;;;;;;4.28;2.33;;;;;;;3.68;65.25;97540.56;5116844;28;19920;-91
2023/01/21 01:55:12;;;;;;;4.35;2.20;;;;;;;3.55;64.89;97539.09;5117279;28;20043;-93
2023/01/21 01:57:42;;;;;;;3.92;2.17;;;;;;;3.60;64.86;97537.22;5114959;28;20035;-92
2023/01/21 02:00:10;;;;;;;4.32;2.33;;;;;;;3.59;65.06;97538.13;5112499;28;20234;-92
2023/01/21 02:02:39;;;;;;;2.75;1.95;;;;;;;3.64;65.50;97554.66;5114383;28;20039;-92
2023/01/21 02:05:09;;;;;;;3.15;2.20;;;;;;;3.59;64.94;97528.47;5115926;28;20096;-92
2023/01/21 02:07:38;;;;;;;3.28;2.03;;;;;;;3.72;64.83;97570.31;5114996;28;20096;-91
2023/01/21 02:10:06;;;;;;;4.88;2.33;;;;;;;3.64;64.30;97555.56;5116476;28;20496;-94
2023/01/21 02:12:34;;;;;;;4.10;2.58;;;;;;;3.66;64.46;97539.75;5115816;28;20039;-91
2023/01/21 02:15:00;;;;;;;4.47;1.92;;;;;;;3.59;63.85;97522.34;5116599;28;20066;-90
2023/01/21 02:17:45;;;;;;;4.38;2.20;;;;;;;3.67;64.15;97542.34;5113956;28;20039;-91
2023/01/21 02:20:45;;;;;;;5.10;2.50;;;;;;;3.70;64.31;97549.31;5115461;28;20039;-92
2023/01/21 02:23:18;;;;;;;2.83;1.77;;;;;;;3.67;64.37;97550.22;5097723;28;20043;-92
2023/01/21 02:26:22;;;;;;;3.83;2.40;;;;;;;3.70;64.10;97546.66;5116004;28;20050;-93
2023/01/21 02:29:34;;;;;;;4.32;2.22;;;;;;;3.67;64.88;97557.25;5034041;28;20045;-91
2023/01/21 02:32:18;;;;;;;3.67;2.20;;;;;;;3.62;64.22;97556.47;5034639;28;20120;-90
2023/01/21 02:34:52;;;;;;;4.07;2.17;;;;;;;3.67;64.85;97562.53;5051336;28;20037;-92
2023/01/21 02:37:25;;;;;;;4.05;2.10;;;;;;;3.52;64.48;97526.88;5033938;28;20482;-92
2023/01/21 02:40:08;;;;;;;2.50;2.00;;;;;;;3.51;64.39;97519.88;5051257;28;20152;-92
2023/01/21 02:42:43;;;;;;;3.63;2.30;;;;;;;3.66;64.36;97539.75;5036342;28;20047;-93
2023/01/21 02:45:19;;;;;;;3.75;1.80;;;;;;;3.67;64.10;97544.97;5035285;28;20175;-92
2023/01/21 02:47:53;;;;;;;3.97;2.25;;;;;;;3.66;63.37;97537.09;5037849;28;20045;-92
2023/01/21 02:50:25;;;;;;;4.07;2.50;;;;;;;3.48;63.74;97502.41;5054634;28;20506;-92
2023/01/21 02:52:55;;;;;;;3.40;2.00;;;;;;;3.63;63.69;97527.53;5037861;28;20037;-91
2023/01/21 02:55:25;;;;;;;2.55;2.15;;;;;;;3.74;63.45;97536.97;5037332;28;20044;-90
2023/01/21 02:57:56;;;;;;;2.92;2.08;;;;;;;3.69;64.04;97535.28;5037231;28;20449;-91
2023/01/21 03:00:28;;;;;;;4.53;2.17;;;;;;;3.62;64.62;97524.91;5036205;28;20041;-93
2023/01/21 03:03:30;;;;;;;3.83;2.15;;;;;;;3.60;64.50;97532.84;5043006;28;20052;-91
2023/01/21 03:06:25;;;;;;;5.82;2.33;;;;;;;3.60;64.09;97542.47;5097173;27;20136;-94
2023/01/21 03:08:54;;;;;;;3.58;2.33;;;;;;;3.52;63.69;97524.25;5127578;27;20067;-91
2023/01/21 03:11:22;;;;;;;3.55;2.47;;;;;;;3.60;64.31;97534.59;5123727;27;20044;-93
2023/01/21 03:16:59;;;;;;;2.72;1.90;;;;;;;3.58;64.51;97528.50;5102870;27;20390;-91
2023/01/21 03:19:31;;;;;;;2.50;1.77;;;;;;;3.46;65.14;97519.94;5069706;28;20078;-94
2023/01/21 03:22:00;;;;;;;4.03;2.00;;;;;;;3.48;65.13;97543.59;5102661;28;20041;-91
2023/01/21 03:24:26;;;;;;;3.28;2.13;;;;;;;3.37;64.69;97524.53;5069591;28;20048;-93
2023/01/21 03:26:56;;;;;;;3.88;2.28;;;;;;;3.42;64.80;97518.28;5069786;28;20040;-92
2023/01/21 03:29:26;;;;;;;3.42;2.20;;;;;;;3.44;64.20;97524.38;5070115;28;20044;-92
2023/01/21 03:31:59;;;;;;;6.10;2.63;;;;;;;3.38;64.97;97524.47;5067192;28;20045;-92
2023/01/21 03:34:29;;;;;;;3.67;2.00;;;;;;;3.40;65.25;97521.84;5069129;28;20108;-91
2023/01/21 03:37:00;;;;;;;2.75;1.73;;;;;;;3.48;64.46;97541.81;5069298;28;20049;-94
2023/01/21 03:39:34;;;;;;;2.85;2.00;;;;;;;3.55;64.60;97539.94;5069209;28;20036;-94
2023/01/21 03:42:01;;;;;;;4.18;2.53;;;;;;;3.39;64.86;97528.84;5069657;28;20044;-90
2023/01/21 03:44:27;;;;;;;4.50;2.30;;;;;;;3.39;65.48;97554.28;5068931;28;20409;-93
2023/01/21 03:47:03;;;;;;;2.60;1.90;;;;;;;3.44;65.40;97555.91;5067920;28;20040;-92
2023/01/21 03:49:33;;;;;;;4.15;2.53;;;;;;;3.34;64.80;97532.44;5067791;28;20032;-92
2023/01/21 03:52:02;;;;;;;4.57;2.30;;;;;;;3.38;65.88;97544.66;5069109;28;20041;-93
2023/01/21 03:54:28;;;;;;;3.38;2.30;;;;;;;3.40;64.78;97554.22;5069612;28;20029;-94
2023/01/21 03:56:54;;;;;;;4.78;2.50;;;;;;;3.28;65.53;97542.19;5069060;28;20041;-94
2023/01/21 03:59:20;;;;;;;5.07;2.08;;;;;;;3.27;66.00;97526.44;5068970;28;20037;-93
2023/01/21 04:01:46;;;;;;;4.45;2.45;;;;;;;3.26;65.09;97533.47;5067579;28;20044;-92
2023/01/21 04:04:13;;;;;;;6.45;2.20;;;;;;;3.39;65.65;97556.91;5069787;28;20052;-92
2023/01/21 04:06:39;;;;;;;4.15;1.98;;;;;;;3.34;65.24;97533.34;5068789;28;20036;-91
2023/01/21 04:09:06;;;;;;;4.07;2.45;;;;;;;3.37;66.08;97533.28;5101889;28;20569;-93
2023/01/21 04:11:32;;;;;;;3.10;1.98;;;;;;;3.39;65.18;97544.63;5102057;28;20136;-92
2023/01/21 04:13:58;;;;;;;4.20;2.10;;;;;;;3.31;65.48;97545.66;5068239;28;20132;-90
2023/01/21 04:16:23;;;;;;;3.60;2.08;;;;;;;3.49;65.40;97563.69;5067007;28;20063;-91
2023/01/21 04:18:49;;;;;;;2.25;1.70;;;;;;;3.55;64.84;97560.09;5068137;28;20045;-92
2023/01/21 04:21:17;;;;;;;3.20;2.40;;;;;;;3.43;65.37;97567.31;5069814;28;20071;-92
2023/01/21 04:23:42;;;;;;;4.20;2.28;;;;;;;3.43;66.61;97576.97;5068277;28;20051;-93
2023/01/21 04:26:09;;;;;;;5.30;2.55;;;;;;;3.40;65.73;97574.38;5065872;28;20032;-93
2023/01/21 04:28:34;;;;;;;7.38;2.30;;;;;;;3.31;65.43;97549.13;5055167;28;20059;-94
2023/01/21 04:31:00;;;;;;;4.38;2.30;;;;;;;3.41;65.31;97566.50;5053971;28;20041;-93
2023/01/21 04:33:26;;;;;;;6.03;2.50;;;;;;;3.25;65.55;97562.38;5055557;28;20044;-93
2023/01/21 04:35:57;;;;;;;4.75;2.25;;;;;;;3.44;63.86;97579.56;5054768;28;20157;-93
2023/01/21 04:38:25;;;;;;;4.55;2.20;;;;;;;3.40;64.67;97579.66;5053520;28;20094;-91
2023/01/21 04:40:50;;;;;;;5.15;2.33;;;;;;;3.37;65.85;97580.56;5053534;28;20037;-94
2023/01/21 04:43:16;;;;;;;4.70;2.40;;;;;;;3.34;65.84;97585.00;5054602;28;20115;-92
2023/01/21 04:45:42;;;;;;;5.22;3.00;;;;;;;3.27;65.76;97579.88;5053502;28;20052;-92
2023/01/21 04:48:08;;;;;;;4.75;2.85;;;;;;;3.26;65.28;97590.41;5054879;28;20057;-93
2023/01/21 04:50:34;;;;;;;4.88;2.97;;;;;;;3.23;65.25;97588.69;5055193;28;20059;-92
2023/01/21 04:53:00;;;;;;;4.78;2.80;;;;;;;3.31;65.51;97601.69;5052980;28;20127;-92
2023/01/21 04:55:27;;;;;;;5.10;2.53;;;;;;;3.12;65.60;97579.25;5052233;28;20128;-93
2023/01/21 04:57:53;;;;;;;4.22;2.38;;;;;;;3.24;65.69;97602.69;5054191;28;20439;-94
2023/01/21 05:00:19;;;;;;;5.40;2.80;;;;;;;3.20;66.42;97593.13;5051635;28;20136;-93
2023/01/21 05:02:45;;;;;;;4.78;2.38;;;;;;;3.29;64.85;97582.47;5053553;28;20072;-93
2023/01/21 05:05:11;;;;;;;5.18;3.10;;;;;;;3.24;64.88;97593.06;5052719;28;20037;-91
2023/01/21 05:07:37;;;;;;;3.35;2.40;;;;;;;3.32;65.32;97621.84;5070174;28;20052;-93
2023/01/21 05:10:04;;;;;;;4.43;2.75;;;;;;;3.11;65.51;97585.41;5053437;28;20044;-91
2023/01/21 05:12:31;;;;;;;6.78;2.75;;;;;;;2.99;66.39;97584.72;5053838;28;20490;-93
2023/01/21 05:14:57;;;;;;;3.95;2.53;;;;;;;3.08;66.19;97578.44;5053539;28;20431;-92
2023/01/21 05:17:23;;;;;;;4.78;2.53;;;;;;;3.08;67.33;97591.59;5051947;28;20087;-91
2023/01/21 05:19:49;;;;;;;3.83;2.60;;;;;;;3.14;68.09;97619.50;5053558;28;20051;-92
2023/01/21 05:22:15;;;;;;;4.05;2.20;;;;;;;3.22;68.33;97615.84;5052079;28;20037;-90
2023/01/21 05:24:41;;;;;;;5.13;2.80;;;;;;;3.04;69.96;97621.41;5068920;28;20132;-89
2023/01/21 05:27:07;;;;;;;4.25;2.58;;;;;;;3.06;71.23;97623.13;5053635;28;20414;-92
2023/01/21 05:29:34;;;;;;;4.80;2.90;;;;;;;2.92;71.38;97629.47;5053880;28;20718;-91
2023/01/21 05:32:00;;;;;;;3.92;2.47;;;;;;;2.85;71.75;97607.69;5050184;28;20041;-90
2023/01/21 05:34:26;;;;;;;3.85;2.70;;;;;;;2.86;72.14;97606.78;5050690;28;20114;-91
2023/01/21 05:36:52;;;;;;;7.20;2.78;;;;;;;3.02;73.64;97639.81;5053400;28;20040;-91
2023/01/21 05:39:17;;;;;;;4.30;2.97;;;;;;;2.95;72.18;97621.53;5051911;28;20132;-91
2023/01/21 05:41:43;;;;;;;4.47;2.47;;;;;;;2.90;73.01;97608.47;5052525;28;20103;-92
2023/01/21 05:44:09;;;;;;;4.43;2.50;;;;;;;2.93;71.67;97599.69;5052875;28;20033;-90
2023/01/21 05:46:37;;;;;;;4.35;2.55;;;;;;;2.91;72.00;97614.59;5051771;28;20040;-90
2023/01/21 05:49:02;;;;;;;4.30;2.65;;;;;;;2.86;72.38;97614.66;5052510;28;20045;-87
2023/01/21 05:51:28;;;;;;;4.75;2.42;;;;;;;3.00;71.53;97633.72;5052979;28;20029;-92
2023/01/21 05:53:54;;;;;;;5.28;2.75;;;;;;;2.99;71.21;97637.25;5051817;28;20036;-93
2023/01/21 05:56:20;;;;;;;5.63;3.22;;;;;;;2.87;73.34;97637.41;5052668;28;20048;-92
2023/01/21 05:58:46;;;;;;;4.70;3.15;;;;;;;2.66;74.98;97634.19;5050784;28;20064;-92
2023/01/21 06:01:12;;;;;;;4.93;2.83;;;;;;;2.53;77.27;97611.63;5051618;28;20449;-93
2023/01/21 06:03:39;;;;;;;4.68;2.47;;;;;;;2.64;78.03;97633.34;5052771;28;20052;-93
2023/01/21 06:06:06;;;;;;;4.95;2.95;;;;;;;2.54;79.52;97626.50;5052135;28;20137;-93
2023/01/21 06:08:32;;;;;;;5.10;3.20;;;;;;;2.42;79.79;97630.13;5052651;28;20045;-91
2023/01/21 06:10:58;;;;;;;5.25;2.67;;;;;;;2.47;80.78;97637.94;5052576;28;20037;-94
2023/01/21 06:13:23;;;;;;;7.32;3.20;;;;;;;2.60;79.91;97649.16;5050990;28;20033;-93
2023/01/21 06:15:53;;;;;;;5.35;3.28;;;;;;;2.55;80.55;97651.84;5052055;28;20064;-93
2023/01/21 06:18:18;;;;;;;9.27;3.42;;;;;;;2.49;81.95;97644.03;5053470;28;20044;-94
2023/01/21 06:20:46;;;;;;;5.15;3.00;;;;;;;2.30;80.37;97617.19;5053591;28;20041;-94
2023/01/21 06:23:12;;;;;;;6.07;3.00;;;;;;;2.45;81.04;97650.22;5052939;28;20133;-94
2023/01/21 06:25:38;;;;;;;4.75;3.10;;;;;;;2.35;80.76;97630.25;5052668;28;20060;-92
2023/01/21 06:28:03;;;;;;;5.20;3.10;;;;;;;2.30;81.22;97632.94;5052540;28;20043;-91
2023/01/21 06:30:29;;;;;;;4.32;2.60;;;;;;;2.35;81.52;97651.25;5051440;28;20052;-91
2023/01/21 06:32:55;;;;;;;4.68;2.95;;;;;;;2.37;82.51;97646.84;5053509;28;20033;-92
2023/01/21 06:35:22;;;;;;;6.70;3.00;;;;;;;2.47;81.90;97648.44;5053898;28;20033;-95
2023/01/21 06:37:49;;;;;;;3.97;2.60;;;;;;;2.23;83.07;97611.16;5054695;28;20041;-95
2023/01/21 06:40:15;;;;;;;4.68;3.03;;;;;;;2.35;82.44;97628.50;5055799;28;20041;-94
2023/01/21 06:42:44;;;;;;;4.60;3.08;;;;;;;2.36;81.29;97632.84;5055368;28;20584;-94
2023/01/21 06:45:10;;;;;;;4.55;2.70;;;;;;;2.33;79.46;97613.66;5054694;28;20127;-93
2023/01/21 06:47:39;;;;;;;5.60;3.40;;;;;;;2.37;79.53;97623.22;5055487;28;20075;-93
2023/01/21 06:50:05;;;;;;;6.53;2.90;;;;;;;2.41;79.22;97619.69;5054377;28;20060;-93
2023/01/21 06:52:31;;;;;;;3.95;2.80;;;;;;;2.56;78.57;97632.59;5055665;28;20041;-94
2023/01/21 06:54:58;;;;;;;6.90;3.28;;;;;;;2.56;79.42;97637.84;5054739;28;20422;-93
2023/01/21 06:57:24;;;;;;;5.32;3.53;;;;;;;2.47;78.66;97653.69;5057569;28;20044;-92
2023/01/21 06:59:50;;;;;;;4.03;2.75;;;;;;;2.34;78.32;97625.88;5054066;28;20045;-93
2023/01/21 07:02:16;;;;;;;5.85;3.30;;;;;;;2.32;77.70;97618.06;5053011;28;20133;-92
2023/01/21 07:04:43;;;;;;;6.10;3.15;;;;;;;2.40;77.70;97628.44;5053474;28;20132;-94
2023/01/21 07:07:10;;;;;;;4.85;3.00;;;;;;;2.58;77.01;97649.19;5053978;28;20034;-93
2023/01/21 07:09:35;;;;;;;9.30;3.50;;;;;;;2.39;75.89;97631.97;5050982;28;20044;-91
2023/01/21 07:12:03;;;;;;;5.68;3.20;;;;;;;2.57;76.56;97644.81;5053019;28;20037;-93
2023/01/21 07:14:29;;;;;;;5.60;2.83;;;;;;;2.63;77.03;97657.88;5052940;28;20060;-93
2023/01/21 07:16:55;;;;;;;4.63;2.85;;;;;;;2.62;76.20;97658.78;5053291;28;20075;-94
2023/01/21 07:19:21;;;;;;;5.05;2.88;;;;;;;2.60;76.85;97655.28;5053681;28;20075;-94
2023/01/21 07:21:47;;;;;;;4.88;2.97;;;;;;;2.49;76.31;97636.16;5053088;28;20045;-93
2023/01/21 07:24:13;;;;;;;4.97;3.03;;;;;;;2.63;76.11;97649.13;5053608;28;20051;-92
2023/01/21 07:26:40;;;;;;;6.45;2.97;;;;;;;2.75;74.83;97672.56;5053509;28;20490;-95
2023/01/21 07:29:08;;;;;;;5.97;3.53;;;;;;;2.63;75.92;97665.75;5054485;28;20041;-94
2023/01/21 07:31:34;;;;;;;6.82;3.10;;;;;;;2.62;75.96;97658.78;5053608;28;20486;-92
2023/01/21 07:34:00;;;;;;;6.28;3.65;;;;;;;2.54;75.65;97651.84;5053212;28;20037;-93
2023/01/21 07:36:26;;;;;;;5.07;3.00;;;;;;;2.50;76.82;97658.91;5053699;28;20376;-93
2023/01/21 07:38:52;;;;;;;5.18;3.15;;;;;;;2.65;76.79;97681.47;5053559;28;20075;-93
2023/01/21 07:41:18;;;;;;;6.20;3.08;;;;;;;2.61;77.59;97685.88;5053628;28;20040;-94
2023/01/21 07:43:45;;;;;;;5.50;3.50;;;;;;;2.67;77.58;97693.69;5053590;28;20048;-93
2023/01/21 07:46:14;;;;;;;6.25;3.40;;;;;;;2.53;78.46;97685.09;5052077;28;20087;-92
2023/01/21 07:48:40;;;;;;;6.07;3.15;;;;;;;2.42;78.50;97687.00;5051146;28;20106;-93
2023/01/21 07:51:06;;;;;;;4.75;3.15;;;;;;;2.58;80.15;97693.81;5053277;28;20078;-93
2023/01/21 07:53:32;;;;;;;6.25;3.50;;;;;;;2.45;79.81;97687.84;5054001;28;20055;-94
2023/01/21 07:56:02;;;;;;;8.65;3.80;;;;;;;2.49;80.68;97691.28;5053664;28;20048;-94
2023/01/21 07:58:28;;;;;;;4.78;3.35;;;;;;;2.34;80.02;97665.22;5053103;28;20364;-93
2023/01/21 08:00:54;;;;;;;5.82;3.30;;;;;;;2.47;79.89;97674.69;5051880;28;20048;-94
2023/01/21 08:03:23;;;;;;;7.25;4.03;;;;;;;2.41;80.18;97659.91;5057417;28;20045;-92
2023/01/21 08:05:50;;;;;;;6.68;3.80;;;;;;;2.55;80.38;97678.09;5057295;28;20041;-92
2023/01/21 08:08:16;;;;;;;8.77;3.88;;;;;;;2.52;80.14;97666.78;5057944;28;20037;-95
2023/01/21 08:10:42;;;;;;;7.65;3.72;;;;;;;2.53;79.95;97686.88;5058287;28;20045;-94
2023/01/21 08:13:08;;;;;;;7.65;4.13;;;;;;;2.33;80.56;97660.88;5057897;28;20047;-93
2023/01/21 08:15:34;;;;;;;9.05;5.10;;;;;;;2.47;79.64;97693.06;5054875;28;20056;-92
2023/01/21 08:18:00;;;;;;;9.18;4.60;;;;;;;2.41;80.16;97669.53;5056949;28;20069;-94
2023/01/21 08:20:27;;;;;;;8.38;4.15;;;;;;;2.54;80.87;97684.25;5057803;28;20098;-95
2023/01/21 08:22:53;;;;;;;9.77;4.43;;;;;;;2.72;79.01;97687.50;5059099;28;20494;-93
2023/01/21 08:25:19;;;;;;;7.18;3.78;;;;;;;2.74;77.53;97668.22;5057153;28;20037;-93
2023/01/21 08:27:45;;;;;;;6.72;3.90;;;;;;;2.86;79.40;97690.81;5062647;28;20139;-94
2023/01/21 08:30:12;;;;;;;7.15;4.07;;;;;;;2.90;77.81;97707.38;5059507;28;20143;-93
2023/01/21 08:32:38;;;;;;;8.43;4.25;;;;;;;2.77;79.04;97677.81;5060788;28;20049;-93
2023/01/21 08:35:05;;;;;;;7.43;4.40;;;;;;;2.90;78.30;97710.00;5059894;28;20052;-93
2023/01/21 08:37:32;;;;;;;7.40;4.45;;;;;;;2.67;78.58;97684.94;5061447;28;20033;-94
2023/01/21 08:39:58;;;;;;;8.27;4.32;;;;;;;2.60;78.55;97683.28;5057706;28;20135;-94
2023/01/21 08:42:24;;;;;;;7.80;5.18;;;;;;;2.85;77.76;97713.56;5058783;28;20072;-94
2023/01/21 08:44:50;;;;;;;9.30;4.60;;;;;;;2.77;79.10;97704.06;5058737;28;20044;-94
2023/01/21 08:47:16;;;;;;;8.50;5.22;;;;;;;2.75;78.48;97692.72;5058652;28;20048;-94
2023/01/21 08:49:43;;;;;;;8.38;5.13;;;;;;;2.93;78.57;97713.47;5058650;28;20045;-93
2023/01/21 08:52:09;;;;;;;6.88;4.97;;;;;;;3.02;78.19;97717.75;5056524;28;20045;-93
2023/01/21 08:54:37;;;;;;;7.32;4.72;;;;;;;3.01;77.38;97727.34;5055810;28;20041;-95
2023/01/21 08:57:03;;;;;;;8.13;5.30;;;;;;;2.77;78.33;97710.16;5056837;28;20052;-93
2023/01/21 08:59:29;;;;;;;11.25;5.15;;;;;;;2.86;79.40;97732.81;5055469;28;20045;-93
2023/01/21 09:01:55;;;;;;;11.55;6.40;;;;;;;2.71;79.65;97720.78;5056145;28;20041;-94
2023/01/21 09:04:22;;;;;;;13.57;6.90;;;;;;;2.92;80.47;97735.34;5056728;28;20051;-92
2023/01/21 09:06:48;;;;;;;13.75;7.40;;;;;;;2.91;79.01;97741.50;5056262;28;20091;-95
2023/01/21 09:09:14;;;;;;;13.93;8.60;;;;;;;2.90;79.17;97737.13;5058086;28;20552;-94
2023/01/21 09:11:41;;;;;;;11.75;7.47;;;;;;;2.82;80.05;97754.75;5056981;28;20128;-92
2023/01/21 09:14:07;;;;;;;9.30;5.93;;;;;;;2.67;81.20;97725.19;5054675;28;20435;-94
2023/01/21 09:16:35;;;;;;;12.85;6.20;;;;;;;2.73;80.11;97744.34;5054172;28;20045;-93
2023/01/21 09:19:01;;;;;;;8.98;5.75;;;;;;;2.77;79.94;97741.66;5056474;28;20080;-93
2023/01/21 09:21:28;;;;;;;10.25;6.07;;;;;;;2.88;79.46;97731.94;5055957;28;20047;-94
2023/01/21 09:23:54;;;;;;;10.77;6.65;;;;;;;2.79;79.79;97736.41;5057803;28;20041;-94
2023/01/21 09:26:21;;;;;;;8.77;5.93;;;;;;;2.82;79.61;97734.63;5057497;28;20044;-94
2023/01/21 09:28:53;;;;;;;8.95;5.80;;;;;;;3.05;79.16;97763.19;5056547;28;20045;-92
2023/01/21 09:31:20;;;;;;;10.68;5.95;;;;;;;2.94;79.29;97758.97;5057031;28;20037;-93
2023/01/21 09:33:49;;;;;;;10.10;6.15;;;;;;;2.93;79.51;97755.50;5059278;28;20478;-94
2023/01/21 09:36:16;;;;;;;8.15;4.95;;;;;;;3.02;77.96;97751.88;5060277;28;20036;-94
2023/01/21 09:38:44;;;;;;;8.35;5.00;;;;;;;2.78;78.41;97753.94;5058354;28;20041;-93
2023/01/21 09:41:21;;;;;;;11.07;5.30;;;;;;;2.92;78.51;97743.25;5058493;28;20037;-91
2023/01/21 09:43:53;;;;;;;7.95;4.97;;;;;;;3.01;78.21;97742.25;5055691;28;20490;-93
2023/01/21 09:46:30;;;;;;;9.65;5.50;;;;;;;3.19;78.66;97759.50;5059401;28;20074;-92
2023/01/21 09:48:58;;;;;;;10.98;5.50;;;;;;;3.03;77.66;97748.34;5058918;28;20033;-94
2023/01/21 09:51:32;;;;;;;7.70;5.40;;;;;;;2.98;76.79;97747.56;5058317;28;20037;-93
2023/01/21 09:53:58;;;;;;;9.45;5.93;;;;;;;3.06;77.14;97766.72;5087572;28;20065;-92
2023/01/21 09:56:31;;;;;;;10.65;5.72;;;;;;;3.09;78.21;97757.00;5057345;28;20071;-94
2023/01/21 09:59:05;;;;;;;10.90;6.53;;;;;;;3.11;76.19;97749.13;5058409;28;20037;-93
2023/01/21 10:01:36;;;;;;;10.40;5.97;;;;;;;3.39;76.62;97757.47;5053457;28;20136;-93
2023/01/21 10:04:17;;;;;;;8.77;5.20;;;;;;;3.42;75.70;97757.41;5058127;28;20516;-93
2023/01/21 10:06:50;;;;;;;8.70;5.20;;;;;;;3.40;74.54;97751.31;5058392;28;20041;-94
2023/01/21 10:09:40;;;;;;;9.98;5.50;;;;;;;3.38;75.76;97744.34;5059142;28;20075;-92
2023/01/21 10:12:27;;;;;;;9.75;5.95;;;;;;;3.31;75.64;97733.06;5058940;28;20108;-92
2023/01/21 10:15:25;;;;;;;10.77;6.10;;;;;;;3.17;76.37;97751.66;5058693;28;20093;-94
2023/01/21 10:17:56;;;;;;;9.05;5.70;;;;;;;3.20;75.84;97751.59;5058053;28;20043;-94
2023/01/21 10:20:27;;;;;;;8.82;6.00;;;;;;;3.27;76.78;97752.41;5058088;28;20424;-93
2023/01/21 10:22:58;;;;;;;9.52;5.53;;;;;;;3.29;77.70;97738.34;5058344;28;20038;-95
2023/01/21 10:25:29;;;;;;;8.77;5.82;;;;;;;3.25;76.48;97734.03;5057673;28;20056;-93
2023/01/21 10:27:58;;;;;;;8.30;5.65;;;;;;;3.41;75.86;97750.44;5059040;28;20112;-92
2023/01/21 10:30:30;;;;;;;8.82;5.85;;;;;;;3.55;76.33;97746.72;5059096;28;20063;-93
2023/01/21 10:32:58;;;;;;;10.55;6.63;;;;;;;3.27;76.71;97741.88;5056784;28;20056;-93
2023/01/21 10:35:42;;;;;;;11.20;6.43;;;;;;;3.33;77.72;97747.06;5089923;28;20021;-93
2023/01/21 10:38:15;;;;;;;11.00;6.53;;;;;;;3.20;77.95;97742.88;5057344;28;20098;-92
2023/01/21 10:40:47;;;;;;;9.93;6.10;;;;;;;3.25;78.72;97754.16;5055015;28;20021;-93
2023/01/21 10:43:27;;;;;;;9.70;6.30;;;;;;;3.22;78.59;97739.31;5058016;28;20040;-92
2023/01/21 10:46:02;;;;;;;9.50;6.00;;;;;;;3.31;78.08;97738.31;5061998;28;20071;-92
2023/01/21 10:48:36;;;;;;;11.65;6.65;;;;;;;3.25;77.95;97739.31;5059656;28;20025;-93
2023/01/21 10:51:09;;;;;;;10.45;6.28;;;;;;;3.26;79.19;97722.63;5064503;28;20045;-92
2023/01/21 10:53:40;;;;;;;9.05;5.97;;;;;;;3.43;78.80;97737.28;5062300;28;20102;-93
2023/01/21 10:56:16;;;;;;;9.93;6.25;;;;;;;3.48;78.23;97744.19;5063607;28;20043;-93
2023/01/21 10:58:46;;;;;;;12.25;6.75;;;;;;;3.59;78.54;97749.28;5063209;28;20053;-93
2023/01/21 11:01:18;;;;;;;11.68;6.72;;;;;;;3.22;79.14;97720.06;5060520;28;20045;-93
2023/01/21 11:03:49;;;;;;;10.65;5.80;;;;;;;3.23;81.12;97719.16;5062305;28;20049;-94
2023/01/21 11:06:17;;;;;;;10.75;6.47;;;;;;;3.17;80.52;97706.16;5063728;28;20048;-94
2023/01/21 11:08:46;;;;;;;9.43;5.83;;;;;;;3.29;79.87;97719.09;5091010;28;20060;-92
2023/01/21 11:11:14;;;;;;;;;;;;;;;3.55;81.21;97746.72;5060945;28;20273;-93
2023/01/21 11:13:40;;;;;;;9.25;6.10;;;;;;;3.54;80.16;97729.25;5064293;28;19927;-93
2023/01/21 11:16:08;;;;;;;11.10;6.60;;;;;;;3.53;81.66;97712.56;5061260;28;20045;-93
2023/01/21 11:18:36;;;;;;;10.05;5.78;;;;;;;3.58;77.95;97700.25;5063065;28;20045;-94
2023/01/21 11:21:15;;;;;;;10.52;5.70;;;;;;;3.70;78.36;97712.31;5060737;28;20123;-93
2023/01/21 11:23:51;;;;;;;7.18;5.03;;;;;;;3.75;75.43;97699.94;5095125;28;20049;-92
2023/01/21 11:26:20;;;;;;;10.15;6.30;;;;;;;3.67;76.56;97694.81;5059349;28;20049;-93
2023/01/21 11:28:46;;;;;;;9.90;6.07;;;;;;;3.62;75.87;97693.16;5057161;28;20045;-94
2023/01/21 11:31:14;;;;;;;8.60;5.55;;;;;;;3.86;76.53;97719.06;5055536;28;20097;-92
2023/01/21 11:33:41;;;;;;;10.13;6.38;;;;;;;3.93;75.96;97726.84;5055014;28;20060;-92
2023/01/21 11:36:16;;;;;;;9.23;6.10;;;;;;;3.59;76.90;97709.84;5052324;28;20387;-92
2023/01/21 11:38:45;;;;;;;10.57;6.47;;;;;;;3.43;75.65;97727.63;5057730;28;20049;-92
2023/01/21 11:41:18;;;;;;;8.57;5.78;;;;;;;3.53;75.76;97685.44;5058985;28;20049;-92
2023/01/21 11:43:46;;;;;;;7.13;5.20;;;;;;;3.74;74.76;97710.50;5059055;28;20044;-93
2023/01/21 11:46:27;;;;;;;11.55;6.57;;;;;;;3.93;73.65;97701.41;5060808;28;20028;-92
2023/01/21 11:48:55;;;;;;;8.88;5.10;;;;;;;3.90;73.50;97723.38;5058163;28;20028;-95
2023/01/21 11:51:22;;;;;;;13.10;7.82;;;;;;;3.88;75.20;97701.50;5059937;28;20503;-94